createdAt,value
2017-10-20T00:01:38.466Z,43.40
2017-10-20T00:04:08.241Z,43.72
2017-10-20T00:06:37.850Z,44.85
2017-10-20T00:09:07.614Z,43.08
2017-10-20T00:11:37.403Z,41.22
2017-10-20T00:14:07.159Z,40.10
2017-10-20T00:16:36.954Z,37.90
2017-10-20T00:19:06.705Z,38.45
2017-10-20T00:21:36.464Z,37.78
2017-10-20T00:24:06.224Z,35.00
2017-10-20T00:26:35.976Z,36.08
2017-10-20T00:29:05.750Z,34.78
2017-10-20T00:31:35.518Z,35.88
2017-10-20T00:34:04.930Z,32.97
2017-10-20T00:36:34.665Z,31.33
2017-10-20T00:39:03.652Z,52.17
2017-10-20T00:41:33.406Z,58.60
2017-10-20T00:44:03.456Z,65.93
2017-10-20T00:46:33.210Z,64.32
2017-10-20T00:49:02.979Z,48.13
2017-10-20T00:51:32.739Z,69.62
2017-10-20T00:54:02.354Z,77.12
2017-10-20T00:56:31.762Z,72.93
2017-10-20T00:59:01.165Z,59.63
2017-10-20T01:01:30.923Z,49.17
2017-10-20T01:04:00.522Z,55.28
2017-10-20T01:06:30.279Z,62.20
2017-10-20T01:09:00.072Z,67.32
2017-10-20T01:11:29.862Z,67.25
2017-10-20T01:13:59.136Z,74.53
2017-10-20T01:16:28.934Z,84.40
2017-10-20T01:18:58.711Z,58.85
2017-10-20T01:21:28.758Z,57.17
2017-10-20T01:23:57.984Z,55.03
2017-10-20T01:26:27.248Z,60.45
2017-10-20T01:28:56.464Z,69.03
2017-10-20T01:31:26.216Z,78.03
2017-10-20T01:33:55.640Z,80.70
2017-10-20T01:36:25.083Z,77.93
2017-10-20T01:38:54.861Z,77.07
2017-10-20T01:41:24.305Z,67.20
2017-10-20T01:43:53.717Z,62.33
2017-10-20T01:46:23.138Z,54.92
2017-10-20T01:48:52.727Z,52.03
2017-10-20T01:51:22.166Z,56.55
2017-10-20T01:53:51.586Z,56.00
2017-10-20T01:56:21.384Z,55.78
2017-10-20T01:58:51.008Z,60.92
2017-10-20T02:01:20.773Z,63.63
2017-10-20T02:03:50.050Z,67.05
2017-10-20T02:06:19.812Z,60.65
2017-10-20T02:08:49.581Z,60.92
2017-10-20T02:11:19.342Z,63.05
2017-10-20T02:13:49.115Z,56.58
2017-10-20T02:16:18.566Z,52.83
2017-10-20T02:18:48.332Z,50.83
2017-10-20T02:21:17.963Z,41.55
2017-10-20T02:23:47.737Z,44.33
2017-10-20T02:26:17.506Z,46.42
2017-10-20T02:28:47.284Z,43.78
2017-10-20T02:31:17.098Z,47.25
2017-10-20T02:33:46.850Z,47.33
2017-10-20T02:36:16.696Z,48.42
2017-10-20T02:38:46.450Z,50.00
2017-10-20T02:41:16.209Z,49.50
2017-10-20T02:43:45.989Z,47.80
2017-10-20T02:46:15.760Z,47.72
2017-10-20T02:48:45.171Z,44.45
2017-10-20T02:51:14.595Z,49.78
2017-10-20T02:53:44.010Z,47.88
2017-10-20T02:56:13.828Z,52.15
2017-10-20T02:58:43.625Z,48.67
2017-10-20T03:01:13.212Z,46.88
2017-10-20T03:03:42.966Z,45.65
2017-10-20T03:06:12.749Z,44.10
2017-10-20T03:08:42.798Z,39.78
2017-10-20T03:11:12.635Z,40.45
2017-10-20T03:13:42.411Z,39.42
2017-10-20T03:16:12.039Z,38.92
2017-10-20T03:18:41.844Z,39.60
2017-10-20T03:21:12.186Z,39.95
2017-10-20T03:23:41.825Z,42.83
2017-10-20T03:26:11.595Z,42.00
2017-10-20T03:28:41.377Z,39.72
2017-10-20T03:31:11.144Z,38.17
2017-10-20T03:33:40.910Z,40.03
2017-10-20T03:36:11.534Z,38.55
2017-10-20T03:38:41.309Z,36.65
2017-10-20T03:41:11.094Z,38.42
2017-10-20T03:43:40.854Z,37.30
2017-10-20T03:46:10.609Z,36.35
2017-10-20T03:48:40.388Z,31.77
2017-10-20T03:51:10.125Z,35.20
2017-10-20T03:53:39.701Z,36.30
2017-10-20T03:56:09.305Z,36.17
2017-10-20T03:58:38.872Z,37.35
2017-10-20T04:01:08.959Z,39.38
2017-10-20T04:03:38.229Z,37.10
2017-10-20T04:06:08.016Z,36.83
2017-10-20T04:08:37.849Z,38.40
2017-10-20T04:11:07.608Z,41.85
2017-10-20T04:13:37.386Z,41.13
2017-10-20T04:16:07.142Z,38.85
2017-10-20T04:18:36.893Z,36.08
2017-10-20T04:21:06.461Z,36.30
2017-10-20T04:23:36.206Z,34.35
2017-10-20T04:26:05.962Z,36.22
2017-10-20T04:28:35.776Z,34.25
2017-10-20T04:31:05.357Z,36.67
2017-10-20T04:33:35.369Z,36.58
2017-10-20T04:36:05.116Z,33.53
2017-10-20T04:38:34.866Z,35.65
2017-10-20T04:41:04.610Z,35.95
2017-10-20T04:43:34.365Z,34.28
2017-10-20T04:46:04.253Z,33.00
2017-10-20T04:48:34.049Z,32.22
2017-10-20T04:51:03.778Z,30.90
2017-10-20T04:53:33.595Z,33.17
2017-10-20T04:56:03.391Z,33.30
2017-10-20T04:58:33.911Z,35.03
2017-10-20T05:01:03.692Z,33.95
2017-10-20T05:03:33.478Z,33.92
2017-10-20T05:06:03.233Z,36.05
2017-10-20T05:08:33.039Z,31.20
2017-10-20T05:11:02.789Z,33.10
2017-10-20T05:13:32.546Z,35.75
2017-10-20T05:16:02.458Z,33.70
2017-10-20T05:18:32.210Z,32.85
2017-10-20T05:21:02.075Z,34.47
2017-10-20T05:23:31.831Z,33.83
2017-10-20T05:26:03.294Z,31.95
2017-10-20T05:28:33.106Z,32.20
2017-10-20T05:31:02.875Z,30.70
2017-10-20T05:33:33.361Z,30.00
2017-10-20T05:36:03.110Z,29.33
2017-10-20T05:38:32.899Z,30.00
2017-10-20T05:41:03.292Z,26.10
2017-10-20T05:43:35.006Z,27.25
2017-10-20T05:46:05.497Z,26.77
2017-10-20T05:48:36.237Z,25.67
2017-10-20T05:51:06.764Z,25.62
2017-10-20T05:53:36.526Z,24.63
2017-10-20T05:56:06.292Z,24.87
2017-10-20T05:58:36.704Z,25.67
2017-10-20T06:01:06.747Z,24.27
2017-10-20T06:03:36.561Z,23.77
2017-10-20T06:06:06.821Z,23.08
2017-10-20T06:08:36.602Z,23.95
2017-10-20T06:11:06.695Z,23.90
2017-10-20T06:13:36.434Z,22.23
2017-10-20T06:16:06.220Z,25.27
2017-10-20T06:18:36.813Z,23.52
2017-10-20T06:21:07.596Z,23.45
2017-10-20T06:23:38.009Z,24.37
2017-10-20T06:26:08.796Z,24.33
2017-10-20T06:28:39.041Z,24.65
2017-10-20T06:31:09.141Z,23.90
2017-10-20T06:33:39.565Z,23.35
2017-10-20T06:36:09.610Z,21.65
2017-10-20T06:38:39.653Z,23.62
2017-10-20T06:41:09.316Z,23.52
2017-10-20T06:43:40.011Z,22.15
2017-10-20T06:46:10.978Z,24.23
2017-10-20T06:48:41.332Z,25.90
2017-10-20T06:51:11.545Z,22.62
2017-10-20T06:53:41.880Z,22.92
2017-10-20T06:56:11.823Z,22.35
2017-10-20T06:58:42.571Z,24.80
2017-10-20T07:01:12.826Z,24.27
2017-10-20T07:03:42.949Z,25.90
2017-10-20T07:06:13.350Z,25.02
2017-10-20T07:08:43.608Z,25.85
2017-10-20T07:11:15.216Z,27.40
2017-10-20T07:13:46.659Z,25.88
2017-10-20T07:16:17.399Z,27.37
2017-10-20T07:21:55.586Z,30.90
2017-10-20T07:24:27.286Z,29.65
2017-10-20T07:26:57.336Z,28.65
2017-10-20T07:29:27.211Z,28.20
2017-10-20T07:31:56.753Z,25.77
2017-10-20T07:34:26.436Z,29.67
2017-10-20T07:36:56.200Z,29.70
2017-10-20T07:39:26.209Z,27.15
2017-10-20T07:41:55.957Z,29.85
2017-10-20T07:44:25.810Z,28.60
2017-10-20T07:46:55.437Z,28.50
2017-10-20T07:49:25.186Z,29.10
2017-10-20T07:51:54.958Z,27.20
2017-10-20T07:54:24.715Z,32.08
2017-10-20T07:56:54.464Z,36.03
2017-10-20T07:59:24.245Z,33.13
2017-10-20T08:01:54.016Z,37.00
2017-10-20T08:04:23.809Z,41.08
2017-10-20T08:06:53.583Z,39.40
2017-10-20T08:09:23.346Z,44.17
2017-10-20T08:11:53.138Z,40.53
2017-10-20T08:14:22.877Z,42.30
2017-10-20T08:16:52.712Z,38.33
2017-10-20T08:19:22.484Z,36.35
2017-10-20T08:21:52.335Z,40.22
2017-10-20T08:24:22.517Z,38.35
2017-10-20T08:26:52.526Z,38.55
2017-10-20T08:29:22.294Z,38.25
2017-10-20T08:31:52.106Z,36.92
2017-10-20T08:34:21.909Z,32.13
2017-10-20T08:36:52.006Z,34.58
2017-10-20T08:39:21.765Z,35.20
2017-10-20T08:41:51.525Z,32.40
2017-10-20T08:44:21.307Z,35.20
2017-10-20T08:46:51.095Z,35.92
2017-10-20T08:49:20.853Z,32.50
2017-10-20T08:51:50.614Z,35.33
2017-10-20T08:54:24.962Z,32.08
2017-10-20T08:56:55.119Z,30.17
2017-10-20T08:59:24.925Z,28.90
2017-10-20T09:01:54.674Z,30.00
2017-10-20T09:04:24.475Z,31.67
2017-10-20T09:06:54.250Z,31.23
2017-10-20T09:09:24.019Z,33.35
2017-10-20T09:11:54.654Z,32.17
2017-10-20T09:14:24.495Z,32.00
2017-10-20T09:16:54.319Z,31.25
2017-10-20T09:19:24.464Z,31.00
2017-10-20T09:21:54.222Z,29.95
2017-10-20T09:24:34.741Z,29.85
2017-10-20T09:27:05.862Z,31.50
2017-10-20T09:29:35.625Z,30.45
2017-10-20T09:32:05.393Z,31.30
2017-10-20T09:34:35.184Z,32.03
2017-10-20T09:37:04.965Z,30.10
2017-10-20T09:39:34.740Z,30.85
2017-10-20T09:42:04.285Z,35.00
2017-10-20T09:44:34.076Z,33.45
2017-10-20T09:47:04.139Z,34.30
2017-10-20T09:49:34.033Z,35.42
2017-10-20T09:52:03.921Z,37.20
2017-10-20T09:54:33.805Z,40.75
2017-10-20T09:57:03.614Z,42.92
2017-10-20T09:59:33.052Z,49.00
2017-10-20T10:02:02.864Z,48.90
2017-10-20T10:04:32.651Z,47.40
2017-10-20T10:07:02.429Z,46.85
2017-10-20T10:09:32.597Z,51.25
2017-10-20T10:12:02.860Z,61.78
2017-10-20T10:14:32.664Z,66.75
2017-10-20T10:17:02.437Z,82.78
2017-10-20T10:19:32.210Z,83.18
2017-10-20T10:22:02.028Z,77.72
2017-10-20T10:24:31.798Z,75.80
2017-10-20T10:27:01.591Z,78.85
2017-10-20T10:29:31.595Z,65.32
2017-10-20T10:32:01.354Z,66.78
2017-10-20T10:34:31.142Z,96.53
2017-10-20T10:37:00.905Z,67.85
2017-10-20T10:39:30.716Z,65.32
2017-10-20T10:42:00.508Z,64.03
2017-10-20T10:44:30.356Z,85.18
2017-10-20T10:47:00.180Z,80.82
2017-10-20T10:49:30.720Z,65.50
2017-10-20T10:52:00.473Z,69.53
2017-10-20T10:54:29.941Z,66.10
2017-10-20T10:56:59.531Z,67.07
2017-10-20T10:59:28.854Z,65.00
2017-10-20T11:01:58.334Z,70.33
2017-10-20T11:04:28.126Z,71.65
2017-10-20T11:07:09.034Z,66.60
2017-10-20T11:09:49.634Z,72.60
2017-10-20T11:12:42.453Z,68.60
2017-10-20T11:15:11.634Z,66.47
2017-10-20T11:17:41.216Z,65.70
2017-10-20T11:20:10.730Z,58.53
2017-10-20T11:22:40.205Z,61.10
2017-10-20T11:25:09.710Z,65.40
2017-10-20T11:27:39.205Z,68.37
2017-10-20T11:30:08.833Z,67.40
2017-10-20T11:32:38.625Z,66.55
2017-10-20T11:35:08.400Z,64.78
2017-10-20T11:37:37.520Z,64.70
2017-10-20T11:40:08.236Z,70.00
2017-10-20T11:42:38.002Z,66.47
2017-10-20T11:45:07.772Z,66.97
2017-10-20T11:47:37.605Z,67.82
2017-10-20T11:50:07.425Z,68.18
2017-10-20T11:52:37.181Z,63.95
2017-10-20T11:55:06.979Z,63.47
2017-10-20T11:57:36.743Z,63.20
2017-10-20T12:00:06.030Z,68.05
2017-10-20T12:02:35.402Z,69.37
2017-10-20T12:05:04.779Z,69.60
2017-10-20T12:07:34.272Z,68.77
2017-10-20T12:10:03.923Z,69.57
2017-10-20T12:12:33.767Z,72.40
2017-10-20T12:15:03.297Z,74.10
2017-10-20T12:17:32.490Z,73.37
2017-10-20T12:20:01.975Z,74.83
2017-10-20T12:22:31.455Z,71.20
2017-10-20T12:25:00.946Z,71.33
2017-10-20T12:27:30.444Z,71.27
2017-10-20T12:30:00.255Z,68.13
2017-10-20T12:32:29.718Z,71.80
2017-10-20T12:34:59.193Z,70.57
2017-10-20T12:37:32.477Z,71.30
2017-10-20T12:40:02.046Z,67.70
2017-10-20T12:42:34.756Z,68.30
2017-10-20T12:45:04.236Z,71.13
2017-10-20T12:47:33.797Z,70.50
2017-10-20T12:50:03.269Z,73.20
2017-10-20T12:52:32.825Z,71.47
2017-10-20T12:55:02.339Z,72.73
2017-10-20T12:57:31.837Z,70.73
2017-10-20T13:00:01.407Z,76.53
2017-10-20T13:02:30.887Z,70.50
2017-10-20T13:05:00.028Z,67.70
2017-10-20T13:07:29.500Z,69.40
2017-10-20T13:09:58.983Z,70.10
2017-10-20T13:12:28.453Z,68.67
2017-10-20T13:14:57.945Z,68.13
2017-10-20T13:17:27.852Z,68.67
2017-10-20T13:19:57.244Z,63.10
2017-10-20T13:22:26.999Z,70.57
2017-10-20T13:24:56.509Z,67.00
2017-10-20T13:27:26.017Z,65.90
2017-10-20T13:29:55.151Z,65.83
2017-10-20T13:32:24.720Z,64.27
2017-10-20T13:34:54.216Z,65.90
2017-10-20T13:37:23.689Z,65.10
2017-10-20T13:39:53.008Z,61.93
2017-10-20T13:42:22.480Z,63.23
2017-10-20T13:44:51.961Z,61.90
2017-10-20T13:47:21.439Z,59.83
2017-10-20T13:49:51.626Z,65.60
2017-10-20T13:52:21.134Z,66.37
2017-10-20T13:54:50.621Z,67.00
2017-10-20T13:57:19.945Z,64.40
2017-10-20T13:59:49.947Z,62.73
2017-10-20T14:02:19.498Z,67.07
2017-10-20T14:04:48.994Z,66.40
2017-10-20T14:07:18.551Z,65.40
2017-10-20T14:09:48.040Z,68.20
2017-10-20T14:12:17.529Z,69.00
2017-10-20T14:14:46.982Z,67.80
2017-10-20T14:17:16.473Z,63.70
2017-10-20T14:19:45.974Z,63.47
2017-10-20T14:22:15.544Z,64.60
2017-10-20T14:24:44.901Z,61.20
2017-10-20T14:27:14.411Z,63.03
2017-10-20T14:29:44.590Z,63.37
2017-10-20T14:32:13.888Z,64.87
2017-10-20T14:34:43.358Z,67.03
2017-10-20T14:37:12.894Z,68.30
2017-10-20T14:39:42.399Z,70.87
2017-10-20T14:42:11.919Z,64.70
2017-10-20T14:44:41.418Z,62.30
2017-10-20T14:47:11.531Z,66.77
2017-10-20T14:49:41.112Z,63.57
2017-10-20T14:52:10.586Z,62.37
2017-10-20T14:54:40.083Z,67.00
2017-10-20T14:57:09.627Z,63.63
2017-10-20T14:59:39.142Z,70.53
2017-10-20T15:02:08.653Z,68.90
2017-10-20T15:04:38.190Z,66.70
2017-10-20T15:07:07.683Z,60.93
2017-10-20T15:09:37.205Z,63.87
2017-10-20T15:12:06.725Z,59.80
2017-10-20T15:14:36.215Z,62.70
2017-10-20T15:17:05.722Z,52.13
2017-10-20T15:19:35.342Z,58.83
2017-10-20T15:22:05.302Z,59.23
2017-10-20T15:24:34.819Z,58.97
2017-10-20T15:27:04.326Z,58.43
2017-10-20T15:29:33.830Z,57.87
2017-10-20T15:32:03.320Z,52.97
2017-10-20T15:34:33.158Z,54.53
2017-10-20T15:37:02.622Z,56.27
2017-10-20T15:39:32.130Z,60.70
2017-10-20T15:42:01.648Z,64.70
2017-10-20T15:44:31.437Z,60.10
2017-10-20T15:47:01.181Z,58.75
2017-10-20T15:49:31.334Z,60.88
2017-10-20T15:52:01.354Z,57.13
2017-10-20T15:54:31.131Z,61.83
2017-10-20T15:57:00.930Z,63.87
2017-10-20T15:59:30.569Z,64.57
2017-10-20T16:02:00.392Z,65.25
2017-10-20T16:04:30.174Z,65.60
2017-10-20T16:06:59.963Z,65.22
2017-10-20T16:09:29.743Z,60.53
2017-10-20T16:11:59.533Z,65.18
2017-10-20T16:14:29.307Z,59.72
2017-10-20T16:16:59.106Z,63.80
2017-10-20T16:19:28.900Z,62.33
2017-10-20T16:21:58.675Z,63.03
2017-10-20T16:24:28.438Z,63.15
2017-10-20T16:26:58.196Z,62.85
2017-10-20T16:29:28.002Z,59.53
2017-10-20T16:31:57.773Z,56.85
2017-10-20T16:34:27.569Z,59.55
2017-10-20T16:36:57.333Z,65.07
2017-10-20T16:39:27.162Z,59.47
2017-10-20T16:41:56.750Z,59.58
2017-10-20T16:44:26.523Z,56.58
2017-10-20T16:46:56.360Z,52.88
2017-10-20T16:49:26.110Z,56.30
2017-10-20T16:51:55.862Z,56.67
2017-10-20T16:54:25.637Z,55.33
2017-10-20T16:56:55.379Z,50.97
2017-10-20T16:59:25.144Z,54.35
2017-10-20T17:01:54.907Z,47.33
2017-10-20T17:04:24.682Z,52.67
2017-10-20T17:06:54.788Z,50.88
2017-10-20T17:09:24.648Z,53.13
2017-10-20T17:11:54.425Z,52.42
2017-10-20T17:14:24.251Z,56.83
2017-10-20T17:16:54.023Z,54.15
2017-10-20T17:19:23.805Z,54.15
2017-10-20T17:21:53.576Z,54.15
2017-10-20T17:24:23.350Z,55.65
2017-10-20T17:26:53.101Z,53.05
2017-10-20T17:29:22.960Z,55.25
2017-10-20T17:31:52.537Z,52.13
2017-10-20T17:34:26.133Z,53.78
2017-10-20T17:36:55.965Z,53.38
2017-10-20T17:39:25.742Z,57.65
2017-10-20T17:41:55.519Z,55.85
2017-10-20T17:44:25.301Z,54.25
2017-10-20T17:46:55.966Z,54.58
2017-10-20T17:49:25.770Z,56.80
2017-10-20T17:51:55.569Z,54.90
2017-10-20T17:54:25.505Z,55.88
2017-10-20T17:56:55.271Z,55.17
2017-10-20T17:59:25.071Z,53.33
2017-10-20T18:01:54.944Z,56.05
2017-10-20T18:04:24.611Z,54.45
2017-10-20T18:06:54.405Z,55.63
2017-10-20T18:09:24.207Z,56.58
2017-10-20T18:11:53.986Z,57.25
2017-10-20T18:14:23.772Z,56.60
2017-10-20T18:16:53.587Z,54.95
2017-10-20T18:19:23.387Z,60.20
2017-10-20T18:21:53.186Z,58.75
2017-10-20T18:24:22.784Z,59.47
2017-10-20T18:26:52.554Z,61.13
2017-10-20T18:29:22.373Z,63.72
2017-10-20T18:31:52.134Z,63.00
2017-10-20T18:34:21.894Z,62.97
2017-10-20T18:36:51.697Z,67.43
2017-10-20T18:39:21.505Z,64.60
2017-10-20T18:41:51.881Z,58.30
2017-10-20T18:44:21.645Z,61.97
2017-10-20T18:46:51.417Z,62.72
2017-10-20T18:49:21.233Z,63.40
2017-10-20T18:51:50.987Z,63.40
2017-10-20T18:54:20.779Z,56.95
2017-10-20T18:56:50.554Z,60.75
2017-10-20T18:59:20.317Z,56.95
2017-10-20T19:01:50.085Z,59.97
2017-10-20T19:04:19.878Z,58.08
2017-10-20T19:06:49.650Z,61.60
2017-10-20T19:09:19.242Z,60.65
2017-10-20T19:11:49.028Z,60.17
2017-10-20T19:14:18.872Z,59.30
2017-10-20T19:16:48.635Z,55.83
2017-10-20T19:19:18.402Z,58.87
2017-10-20T19:21:48.214Z,56.00
2017-10-20T19:24:17.980Z,64.90
2017-10-20T19:26:47.777Z,61.30
2017-10-20T19:29:17.734Z,62.03
2017-10-20T19:31:48.528Z,64.50
2017-10-20T19:34:18.318Z,64.12
2017-10-20T19:36:48.085Z,60.17
2017-10-20T19:39:21.895Z,60.88
2017-10-20T19:41:51.661Z,58.72
2017-10-20T19:44:21.432Z,61.85
2017-10-20T19:46:51.389Z,56.97
2017-10-20T19:49:21.176Z,53.75
2017-10-20T19:51:50.940Z,55.42
2017-10-20T19:54:20.704Z,53.08
2017-10-20T19:56:50.536Z,51.88
2017-10-20T19:59:20.303Z,51.45
2017-10-20T20:01:50.079Z,49.85
2017-10-20T20:04:19.988Z,54.90
2017-10-20T20:06:49.743Z,55.70
2017-10-20T20:09:19.326Z,53.90
2017-10-20T20:11:48.885Z,60.90
2017-10-20T20:14:18.661Z,56.45
2017-10-20T20:16:48.476Z,56.42
2017-10-20T20:19:17.808Z,54.70
2017-10-20T20:21:47.360Z,54.03
2017-10-20T20:24:16.944Z,59.95
2017-10-20T20:26:46.528Z,54.60
2017-10-20T20:29:16.161Z,54.50
2017-10-20T20:31:45.741Z,56.83
2017-10-20T20:34:15.388Z,53.08
2017-10-20T20:36:44.980Z,54.05
2017-10-20T20:39:14.763Z,49.17
2017-10-20T20:41:44.517Z,53.00
2017-10-20T20:44:14.290Z,49.97
2017-10-20T20:46:44.212Z,50.35
2017-10-20T20:49:13.977Z,49.85
2017-10-20T20:51:43.727Z,45.53
2017-10-20T20:54:13.488Z,53.00
2017-10-20T20:56:43.302Z,55.83
2017-10-20T20:59:13.119Z,53.83
2017-10-20T21:01:42.906Z,55.00
2017-10-20T21:04:16.782Z,54.55
2017-10-20T21:06:46.598Z,53.42
2017-10-20T21:09:16.376Z,56.83
2017-10-20T21:11:46.157Z,52.15
2017-10-20T21:14:15.916Z,51.63
2017-10-20T21:16:45.674Z,55.17
2017-10-20T21:19:15.477Z,54.67
2017-10-20T21:21:45.259Z,48.97
2017-10-20T21:24:15.016Z,49.00
2017-10-20T21:26:44.773Z,47.47
2017-10-20T21:29:14.528Z,47.65
2017-10-20T21:31:44.291Z,46.65
2017-10-20T21:34:13.862Z,48.15
2017-10-20T21:36:43.622Z,43.42
2017-10-20T21:39:13.393Z,46.10
2017-10-20T21:41:43.443Z,47.70
2017-10-20T21:44:13.226Z,48.25
2017-10-20T21:46:42.994Z,50.28
2017-10-20T21:49:12.758Z,51.55
2017-10-20T21:51:42.550Z,49.22
2017-10-20T21:54:12.313Z,47.50
2017-10-20T21:56:42.079Z,47.03
2017-10-20T21:59:11.972Z,48.20
2017-10-20T22:01:41.770Z,45.30
2017-10-20T22:04:11.350Z,42.00
2017-10-20T22:06:41.126Z,42.92
2017-10-20T22:09:10.921Z,43.75
2017-10-20T22:11:40.687Z,42.10
2017-10-20T22:14:10.457Z,42.08
2017-10-20T22:16:40.263Z,44.35
2017-10-20T22:19:09.828Z,41.95
2017-10-20T22:21:39.879Z,43.95
2017-10-20T22:24:09.630Z,42.83
2017-10-20T22:26:39.387Z,45.00
2017-10-20T22:29:09.150Z,44.50
2017-10-20T22:31:38.922Z,40.20
2017-10-20T22:34:08.674Z,41.65
2017-10-20T22:36:38.598Z,39.70
2017-10-20T22:39:08.363Z,42.60
2017-10-20T22:41:38.131Z,42.83
2017-10-20T22:44:07.892Z,41.63
2017-10-20T22:46:37.669Z,40.08
2017-10-20T22:49:07.423Z,40.47
2017-10-20T22:51:36.864Z,41.05
2017-10-20T22:54:06.634Z,40.10
2017-10-20T22:56:36.401Z,37.17
2017-10-20T22:59:06.233Z,38.35
2017-10-20T23:01:36.026Z,37.40
2017-10-20T23:04:05.614Z,37.15
2017-10-20T23:06:35.395Z,37.42
2017-10-20T23:09:04.763Z,35.70
2017-10-20T23:11:34.530Z,35.78
2017-10-20T23:14:04.281Z,35.40
2017-10-20T23:16:38.008Z,35.85
2017-10-20T23:19:07.844Z,36.92
2017-10-20T23:21:37.595Z,34.80
2017-10-20T23:24:07.348Z,36.88
2017-10-20T23:26:37.101Z,37.20
2017-10-20T23:29:06.871Z,36.90
2017-10-20T23:31:36.679Z,40.05
2017-10-20T23:34:06.442Z,35.58
2017-10-20T23:36:36.209Z,37.58
2017-10-20T23:39:05.628Z,37.40
2017-10-20T23:41:35.358Z,36.03
2017-10-20T23:44:05.126Z,33.25
2017-10-20T23:46:34.866Z,31.92
2017-10-20T23:49:04.632Z,33.60
2017-10-20T23:51:34.178Z,34.55
2017-10-20T23:54:03.756Z,34.78
2017-10-20T23:56:33.503Z,35.97
2017-10-20T23:59:03.265Z,33.50
